sensor_id;sensor_type;location;lat;lon;timestamp;P1;durP1;ratioP1;P2;durP2;ratioP2
79128;SDS011;68529;43.286;23.360;2024-03-08T00:02:03;29.47;;;20.60;;
79128;SDS011;68529;43.286;23.360;2024-03-08T00:04:28;31.30;;;19.60;;
79128;SDS011;68529;43.286;23.360;2024-03-08T00:06:54;24.73;;;18.57;;
79128;SDS011;68529;43.286;23.360;2024-03-08T00:09:19;26.60;;;18.53;;
79128;SDS011;68529;43.286;23.360;2024-03-08T00:11:46;38.00;;;23.60;;
79128;SDS011;68529;43.286;23.360;2024-03-08T00:14:11;28.47;;;19.17;;
79128;SDS011;68529;43.286;23.360;2024-03-08T00:16:37;30.73;;;22.03;;
79128;SDS011;68529;43.286;23.360;2024-03-08T00:19:03;43.40;;;27.70;;
79128;SDS011;68529;43.286;23.360;2024-03-08T00:21:29;51.10;;;29.47;;
79128;SDS011;68529;43.286;23.360;2024-03-08T00:23:54;37.80;;;23.30;;
79128;SDS011;68529;43.286;23.360;2024-03-08T00:26:20;43.87;;;26.97;;
79128;SDS011;68529;43.286;23.360;2024-03-08T00:28:47;56.03;;;34.63;;
79128;SDS011;68529;43.286;23.360;2024-03-08T00:31:13;47.67;;;30.67;;
79128;SDS011;68529;43.286;23.360;2024-03-08T00:33:39;35.63;;;24.03;;
79128;SDS011;68529;43.286;23.360;2024-03-08T00:36:04;32.93;;;24.13;;
79128;SDS011;68529;43.286;23.360;2024-03-08T00:38:30;43.97;;;28.43;;
79128;SDS011;68529;43.286;23.360;2024-03-08T00:40:56;28.33;;;20.37;;
79128;SDS011;68529;43.286;23.360;2024-03-08T00:43:22;25.63;;;19.93;;
79128;SDS011;68529;43.286;23.360;2024-03-08T00:45:47;28.27;;;20.27;;
79128;SDS011;68529;43.286;23.360;2024-03-08T00:48:12;29.47;;;22.57;;
79128;SDS011;68529;43.286;23.360;2024-03-08T00:50:38;26.87;;;20.70;;
79128;SDS011;68529;43.286;23.360;2024-03-08T00:53:03;27.47;;;20.20;;
79128;SDS011;68529;43.286;23.360;2024-03-08T00:55:29;27.67;;;19.37;;
79128;SDS011;68529;43.286;23.360;2024-03-08T00:57:55;26.93;;;19.57;;
79128;SDS011;68529;43.286;23.360;2024-03-08T01:00:20;21.33;;;16.53;;
79128;SDS011;68529;43.286;23.360;2024-03-08T01:02:46;22.03;;;17.63;;
79128;SDS011;68529;43.286;23.360;2024-03-08T01:05:13;27.50;;;21.00;;
79128;SDS011;68529;43.286;23.360;2024-03-08T01:07:38;40.83;;;26.13;;
79128;SDS011;68529;43.286;23.360;2024-03-08T01:10:04;51.53;;;29.20;;
79128;SDS011;68529;43.286;23.360;2024-03-08T01:12:34;41.30;;;26.67;;
79128;SDS011;68529;43.286;23.360;2024-03-08T01:14:59;55.73;;;31.50;;
79128;SDS011;68529;43.286;23.360;2024-03-08T01:17:25;42.03;;;25.07;;
79128;SDS011;68529;43.286;23.360;2024-03-08T01:19:51;34.63;;;22.40;;
79128;SDS011;68529;43.286;23.360;2024-03-08T01:22:16;27.40;;;20.53;;
79128;SDS011;68529;43.286;23.360;2024-03-08T01:24:41;38.60;;;25.37;;
79128;SDS011;68529;43.286;23.360;2024-03-08T01:27:07;45.17;;;26.17;;
79128;SDS011;68529;43.286;23.360;2024-03-08T01:29:34;39.17;;;25.37;;
79128;SDS011;68529;43.286;23.360;2024-03-08T01:31:59;33.57;;;22.70;;
79128;SDS011;68529;43.286;23.360;2024-03-08T01:34:26;54.50;;;32.03;;
79128;SDS011;68529;43.286;23.360;2024-03-08T01:36:53;25.70;;;18.13;;
79128;SDS011;68529;43.286;23.360;2024-03-08T01:39:20;36.03;;;24.00;;
79128;SDS011;68529;43.286;23.360;2024-03-08T01:41:47;41.13;;;25.77;;
79128;SDS011;68529;43.286;23.360;2024-03-08T01:44:12;48.20;;;28.53;;
79128;SDS011;68529;43.286;23.360;2024-03-08T01:46:42;37.37;;;23.77;;
79128;SDS011;68529;43.286;23.360;2024-03-08T01:49:09;47.47;;;27.87;;
79128;SDS011;68529;43.286;23.360;2024-03-08T01:51:36;30.47;;;21.60;;
79128;SDS011;68529;43.286;23.360;2024-03-08T01:54:05;29.33;;;19.63;;
79128;SDS011;68529;43.286;23.360;2024-03-08T01:56:31;27.10;;;20.47;;
79128;SDS011;68529;43.286;23.360;2024-03-08T01:58:57;28.50;;;21.07;;
79128;SDS011;68529;43.286;23.360;2024-03-08T02:01:24;32.43;;;22.43;;
79128;SDS011;68529;43.286;23.360;2024-03-08T02:03:50;26.67;;;19.80;;
79128;SDS011;68529;43.286;23.360;2024-03-08T02:06:16;33.40;;;22.87;;
79128;SDS011;68529;43.286;23.360;2024-03-08T02:08:45;29.73;;;20.27;;
79128;SDS011;68529;43.286;23.360;2024-03-08T02:11:11;33.97;;;20.40;;
79128;SDS011;68529;43.286;23.360;2024-03-08T02:13:37;37.63;;;22.37;;
79128;SDS011;68529;43.286;23.360;2024-03-08T02:16:03;35.77;;;22.83;;
79128;SDS011;68529;43.286;23.360;2024-03-08T02:18:30;36.60;;;23.03;;
79128;SDS011;68529;43.286;23.360;2024-03-08T02:20:57;43.50;;;25.27;;
79128;SDS011;68529;43.286;23.360;2024-03-08T02:23:25;39.30;;;24.17;;
79128;SDS011;68529;43.286;23.360;2024-03-08T02:25:51;32.40;;;21.60;;
79128;SDS011;68529;43.286;23.360;2024-03-08T02:28:17;25.67;;;17.63;;
79128;SDS011;68529;43.286;23.360;2024-03-08T02:30:48;36.50;;;24.23;;
79128;SDS011;68529;43.286;23.360;2024-03-08T02:33:15;32.43;;;21.13;;
79128;SDS011;68529;43.286;23.360;2024-03-08T02:35:42;27.30;;;18.60;;
79128;SDS011;68529;43.286;23.360;2024-03-08T02:38:12;28.97;;;18.87;;
79128;SDS011;68529;43.286;23.360;2024-03-08T02:40:47;28.67;;;18.03;;
79128;SDS011;68529;43.286;23.360;2024-03-08T02:43:14;28.97;;;18.67;;
79128;SDS011;68529;43.286;23.360;2024-03-08T02:45:40;31.70;;;20.13;;
79128;SDS011;68529;43.286;23.360;2024-03-08T02:48:10;30.13;;;19.40;;
79128;SDS011;68529;43.286;23.360;2024-03-08T02:50:36;31.13;;;20.03;;
79128;SDS011;68529;43.286;23.360;2024-03-08T02:53:01;25.00;;;17.50;;
79128;SDS011;68529;43.286;23.360;2024-03-08T02:55:27;25.40;;;17.83;;
79128;SDS011;68529;43.286;23.360;2024-03-08T02:57:53;23.03;;;17.30;;
79128;SDS011;68529;43.286;23.360;2024-03-08T03:00:21;24.90;;;16.00;;
79128;SDS011;68529;43.286;23.360;2024-03-08T03:02:48;27.40;;;18.13;;
79128;SDS011;68529;43.286;23.360;2024-03-08T03:05:19;19.63;;;15.03;;
79128;SDS011;68529;43.286;23.360;2024-03-08T03:07:45;19.17;;;14.43;;
79128;SDS011;68529;43.286;23.360;2024-03-08T03:10:11;31.50;;;17.60;;
79128;SDS011;68529;43.286;23.360;2024-03-08T03:12:37;23.87;;;16.97;;
79128;SDS011;68529;43.286;23.360;2024-03-08T03:15:03;30.10;;;19.23;;
79128;SDS011;68529;43.286;23.360;2024-03-08T03:17:29;25.80;;;16.37;;
79128;SDS011;68529;43.286;23.360;2024-03-08T03:19:55;20.33;;;15.63;;
79128;SDS011;68529;43.286;23.360;2024-03-08T03:22:20;20.40;;;16.40;;
79128;SDS011;68529;43.286;23.360;2024-03-08T03:24:46;17.10;;;13.70;;
79128;SDS011;68529;43.286;23.360;2024-03-08T03:27:12;13.97;;;11.03;;
79128;SDS011;68529;43.286;23.360;2024-03-08T03:29:39;11.37;;;9.50;;
79128;SDS011;68529;43.286;23.360;2024-03-08T03:32:10;9.50;;;8.40;;
79128;SDS011;68529;43.286;23.360;2024-03-08T03:34:39;13.00;;;9.47;;
79128;SDS011;68529;43.286;23.360;2024-03-08T03:37:05;9.50;;;8.57;;
79128;SDS011;68529;43.286;23.360;2024-03-08T03:39:33;9.53;;;8.53;;
79128;SDS011;68529;43.286;23.360;2024-03-08T03:42:13;11.30;;;9.40;;
79128;SDS011;68529;43.286;23.360;2024-03-08T03:44:41;10.50;;;9.40;;
79128;SDS011;68529;43.286;23.360;2024-03-08T03:47:09;11.03;;;9.07;;
79128;SDS011;68529;43.286;23.360;2024-03-08T03:49:35;11.23;;;9.00;;
79128;SDS011;68529;43.286;23.360;2024-03-08T03:52:00;10.60;;;8.87;;
79128;SDS011;68529;43.286;23.360;2024-03-08T03:54:25;9.77;;;8.77;;
79128;SDS011;68529;43.286;23.360;2024-03-08T03:56:51;14.37;;;11.10;;
79128;SDS011;68529;43.286;23.360;2024-03-08T03:59:18;13.23;;;10.40;;
79128;SDS011;68529;43.286;23.360;2024-03-08T04:01:44;13.33;;;10.63;;
79128;SDS011;68529;43.286;23.360;2024-03-08T04:04:09;13.53;;;11.47;;
79128;SDS011;68529;43.286;23.360;2024-03-08T04:06:35;14.77;;;11.57;;
79128;SDS011;68529;43.286;23.360;2024-03-08T04:09:00;11.67;;;10.47;;
79128;SDS011;68529;43.286;23.360;2024-03-08T04:11:25;12.40;;;11.10;;
79128;SDS011;68529;43.286;23.360;2024-03-08T04:13:51;15.67;;;12.40;;
79128;SDS011;68529;43.286;23.360;2024-03-08T04:16:17;15.10;;;11.40;;
79128;SDS011;68529;43.286;23.360;2024-03-08T04:18:43;12.80;;;11.40;;
79128;SDS011;68529;43.286;23.360;2024-03-08T04:21:09;12.07;;;10.70;;
79128;SDS011;68529;43.286;23.360;2024-03-08T04:23:34;14.30;;;11.23;;
79128;SDS011;68529;43.286;23.360;2024-03-08T04:26:01;12.73;;;11.43;;
79128;SDS011;68529;43.286;23.360;2024-03-08T04:28:29;12.77;;;11.37;;
79128;SDS011;68529;43.286;23.360;2024-03-08T04:30:54;13.00;;;11.60;;
79128;SDS011;68529;43.286;23.360;2024-03-08T04:33:20;16.20;;;13.10;;
79128;SDS011;68529;43.286;23.360;2024-03-08T04:35:46;14.03;;;12.13;;
79128;SDS011;68529;43.286;23.360;2024-03-08T04:38:12;14.13;;;12.27;;
79128;SDS011;68529;43.286;23.360;2024-03-08T04:40:37;15.27;;;13.07;;
79128;SDS011;68529;43.286;23.360;2024-03-08T04:43:03;15.83;;;13.17;;
79128;SDS011;68529;43.286;23.360;2024-03-08T04:45:29;17.50;;;13.37;;
79128;SDS011;68529;43.286;23.360;2024-03-08T04:47:54;16.43;;;13.60;;
79128;SDS011;68529;43.286;23.360;2024-03-08T04:50:19;16.47;;;13.80;;
79128;SDS011;68529;43.286;23.360;2024-03-08T04:52:45;16.17;;;13.30;;
79128;SDS011;68529;43.286;23.360;2024-03-08T04:55:11;14.13;;;12.33;;
79128;SDS011;68529;43.286;23.360;2024-03-08T04:57:37;17.00;;;13.93;;
79128;SDS011;68529;43.286;23.360;2024-03-08T05:00:02;15.20;;;13.27;;
79128;SDS011;68529;43.286;23.360;2024-03-08T05:02:32;18.23;;;14.03;;
79128;SDS011;68529;43.286;23.360;2024-03-08T05:04:58;17.03;;;14.40;;
79128;SDS011;68529;43.286;23.360;2024-03-08T05:07:23;17.40;;;13.87;;
79128;SDS011;68529;43.286;23.360;2024-03-08T05:09:49;18.20;;;14.30;;
79128;SDS011;68529;43.286;23.360;2024-03-08T05:12:17;14.67;;;12.73;;
79128;SDS011;68529;43.286;23.360;2024-03-08T05:14:44;16.13;;;14.33;;
79128;SDS011;68529;43.286;23.360;2024-03-08T05:17:11;18.10;;;14.60;;
79128;SDS011;68529;43.286;23.360;2024-03-08T05:19:37;15.90;;;13.23;;
79128;SDS011;68529;43.286;23.360;2024-03-08T05:22:02;18.37;;;15.00;;
79128;SDS011;68529;43.286;23.360;2024-03-08T05:24:28;16.20;;;14.23;;
79128;SDS011;68529;43.286;23.360;2024-03-08T05:26:54;17.50;;;14.20;;
79128;SDS011;68529;43.286;23.360;2024-03-08T05:29:20;19.20;;;16.03;;
79128;SDS011;68529;43.286;23.360;2024-03-08T05:31:49;19.83;;;16.43;;
79128;SDS011;68529;43.286;23.360;2024-03-08T05:34:19;22.30;;;17.27;;
79128;SDS011;68529;43.286;23.360;2024-03-08T05:36:44;31.00;;;22.77;;
79128;SDS011;68529;43.286;23.360;2024-03-08T05:39:12;39.37;;;25.70;;
79128;SDS011;68529;43.286;23.360;2024-03-08T05:41:38;33.10;;;23.73;;
79128;SDS011;68529;43.286;23.360;2024-03-08T05:44:07;21.77;;;18.63;;
79128;SDS011;68529;43.286;23.360;2024-03-08T05:46:33;22.00;;;16.70;;
79128;SDS011;68529;43.286;23.360;2024-03-08T05:48:59;18.40;;;16.03;;
79128;SDS011;68529;43.286;23.360;2024-03-08T05:51:25;22.70;;;16.80;;
79128;SDS011;68529;43.286;23.360;2024-03-08T05:53:53;23.57;;;16.70;;
79128;SDS011;68529;43.286;23.360;2024-03-08T05:56:21;20.60;;;16.93;;
79128;SDS011;68529;43.286;23.360;2024-03-08T05:58:48;21.50;;;16.67;;
79128;SDS011;68529;43.286;23.360;2024-03-08T06:01:15;20.00;;;16.97;;
79128;SDS011;68529;43.286;23.360;2024-03-08T06:03:40;21.17;;;17.13;;
79128;SDS011;68529;43.286;23.360;2024-03-08T06:06:11;19.47;;;16.70;;
79128;SDS011;68529;43.286;23.360;2024-03-08T06:08:37;21.57;;;17.40;;
79128;SDS011;68529;43.286;23.360;2024-03-08T06:11:03;22.67;;;18.43;;
79128;SDS011;68529;43.286;23.360;2024-03-08T06:13:29;20.87;;;17.93;;
79128;SDS011;68529;43.286;23.360;2024-03-08T06:15:56;23.27;;;18.17;;
79128;SDS011;68529;43.286;23.360;2024-03-08T06:18:21;25.37;;;19.37;;
79128;SDS011;68529;43.286;23.360;2024-03-08T06:20:47;25.03;;;20.47;;
79128;SDS011;68529;43.286;23.360;2024-03-08T06:23:12;23.03;;;17.17;;
79128;SDS011;68529;43.286;23.360;2024-03-08T06:25:39;18.83;;;16.03;;
79128;SDS011;68529;43.286;23.360;2024-03-08T06:28:04;25.63;;;19.23;;
79128;SDS011;68529;43.286;23.360;2024-03-08T06:30:30;24.70;;;20.13;;
79128;SDS011;68529;43.286;23.360;2024-03-08T06:32:56;22.70;;;17.77;;
79128;SDS011;68529;43.286;23.360;2024-03-08T06:35:21;21.47;;;16.83;;
79128;SDS011;68529;43.286;23.360;2024-03-08T06:37:47;22.50;;;16.97;;
79128;SDS011;68529;43.286;23.360;2024-03-08T06:40:12;20.13;;;15.73;;
79128;SDS011;68529;43.286;23.360;2024-03-08T06:42:39;19.33;;;16.60;;
79128;SDS011;68529;43.286;23.360;2024-03-08T06:45:05;17.67;;;15.07;;
79128;SDS011;68529;43.286;23.360;2024-03-08T06:47:31;24.40;;;17.60;;
79128;SDS011;68529;43.286;23.360;2024-03-08T06:49:57;20.00;;;16.03;;
79128;SDS011;68529;43.286;23.360;2024-03-08T06:52:22;22.07;;;17.17;;
79128;SDS011;68529;43.286;23.360;2024-03-08T06:54:48;18.70;;;14.03;;
79128;SDS011;68529;43.286;23.360;2024-03-08T06:57:14;18.43;;;14.80;;
79128;SDS011;68529;43.286;23.360;2024-03-08T06:59:41;20.70;;;14.97;;
79128;SDS011;68529;43.286;23.360;2024-03-08T07:02:07;18.00;;;14.57;;
79128;SDS011;68529;43.286;23.360;2024-03-08T07:04:34;18.60;;;14.87;;
79128;SDS011;68529;43.286;23.360;2024-03-08T07:07:03;17.93;;;13.73;;
79128;SDS011;68529;43.286;23.360;2024-03-08T07:09:29;16.57;;;12.83;;
79128;SDS011;68529;43.286;23.360;2024-03-08T07:11:54;15.60;;;13.87;;
79128;SDS011;68529;43.286;23.360;2024-03-08T07:14:22;17.93;;;14.70;;
79128;SDS011;68529;43.286;23.360;2024-03-08T07:16:49;16.70;;;13.73;;
79128;SDS011;68529;43.286;23.360;2024-03-08T07:19:15;17.10;;;13.73;;
79128;SDS011;68529;43.286;23.360;2024-03-08T07:21:42;16.47;;;13.60;;
79128;SDS011;68529;43.286;23.360;2024-03-08T07:24:10;19.33;;;14.07;;
79128;SDS011;68529;43.286;23.360;2024-03-08T07:26:42;15.40;;;12.90;;
79128;SDS011;68529;43.286;23.360;2024-03-08T07:29:14;15.93;;;13.13;;
79128;SDS011;68529;43.286;23.360;2024-03-08T07:31:39;15.60;;;13.40;;
79128;SDS011;68529;43.286;23.360;2024-03-08T07:34:20;18.50;;;14.27;;
79128;SDS011;68529;43.286;23.360;2024-03-08T07:36:46;17.43;;;13.70;;
79128;SDS011;68529;43.286;23.360;2024-03-08T07:39:11;18.00;;;14.20;;
79128;SDS011;68529;43.286;23.360;2024-03-08T07:41:39;16.87;;;13.63;;
79128;SDS011;68529;43.286;23.360;2024-03-08T07:44:07;18.37;;;15.83;;
79128;SDS011;68529;43.286;23.360;2024-03-08T07:46:33;19.17;;;15.70;;
79128;SDS011;68529;43.286;23.360;2024-03-08T07:49:02;20.37;;;15.00;;
79128;SDS011;68529;43.286;23.360;2024-03-08T07:51:28;18.70;;;15.53;;
79128;SDS011;68529;43.286;23.360;2024-03-08T07:53:53;17.00;;;14.77;;
79128;SDS011;68529;43.286;23.360;2024-03-08T07:56:19;16.97;;;14.23;;
79128;SDS011;68529;43.286;23.360;2024-03-08T07:58:46;18.90;;;16.57;;
79128;SDS011;68529;43.286;23.360;2024-03-08T08:01:18;20.83;;;16.77;;
79128;SDS011;68529;43.286;23.360;2024-03-08T08:03:44;29.03;;;25.47;;
79128;SDS011;68529;43.286;23.360;2024-03-08T08:06:10;25.77;;;22.50;;
79128;SDS011;68529;43.286;23.360;2024-03-08T08:08:41;18.43;;;15.47;;
79128;SDS011;68529;43.286;23.360;2024-03-08T08:11:09;15.87;;;14.00;;
79128;SDS011;68529;43.286;23.360;2024-03-08T08:13:40;16.97;;;15.00;;
79128;SDS011;68529;43.286;23.360;2024-03-08T08:16:08;15.60;;;12.63;;
79128;SDS011;68529;43.286;23.360;2024-03-08T08:18:34;15.00;;;13.30;;
79128;SDS011;68529;43.286;23.360;2024-03-08T08:21:01;23.00;;;17.40;;
79128;SDS011;68529;43.286;23.360;2024-03-08T08:23:31;14.13;;;11.50;;
79128;SDS011;68529;43.286;23.360;2024-03-08T08:25:57;14.70;;;11.57;;
79128;SDS011;68529;43.286;23.360;2024-03-08T08:28:22;12.47;;;10.77;;
79128;SDS011;68529;43.286;23.360;2024-03-08T08:30:48;12.10;;;10.90;;
79128;SDS011;68529;43.286;23.360;2024-03-08T08:33:17;13.63;;;11.17;;
79128;SDS011;68529;43.286;23.360;2024-03-08T08:35:42;13.17;;;11.40;;
79128;SDS011;68529;43.286;23.360;2024-03-08T08:38:07;14.33;;;12.37;;
79128;SDS011;68529;43.286;23.360;2024-03-08T08:40:34;16.13;;;13.43;;
79128;SDS011;68529;43.286;23.360;2024-03-08T08:43:00;15.37;;;12.73;;
79128;SDS011;68529;43.286;23.360;2024-03-08T08:45:29;14.43;;;12.73;;
79128;SDS011;68529;43.286;23.360;2024-03-08T08:47:55;14.07;;;12.57;;
79128;SDS011;68529;43.286;23.360;2024-03-08T08:50:21;17.93;;;13.87;;
79128;SDS011;68529;43.286;23.360;2024-03-08T08:52:49;14.83;;;13.00;;
79128;SDS011;68529;43.286;23.360;2024-03-08T08:55:15;14.97;;;13.10;;
79128;SDS011;68529;43.286;23.360;2024-03-08T08:57:40;16.00;;;14.00;;
79128;SDS011;68529;43.286;23.360;2024-03-08T09:00:06;15.57;;;12.80;;
79128;SDS011;68529;43.286;23.360;2024-03-08T09:02:33;14.50;;;13.00;;
79128;SDS011;68529;43.286;23.360;2024-03-08T09:04:59;13.93;;;11.70;;
79128;SDS011;68529;43.286;23.360;2024-03-08T09:07:26;13.57;;;12.17;;
79128;SDS011;68529;43.286;23.360;2024-03-08T09:09:52;18.70;;;14.73;;
79128;SDS011;68529;43.286;23.360;2024-03-08T09:12:22;19.50;;;16.53;;
79128;SDS011;68529;43.286;23.360;2024-03-08T09:14:47;17.20;;;15.20;;
79128;SDS011;68529;43.286;23.360;2024-03-08T09:17:13;13.30;;;11.70;;
79128;SDS011;68529;43.286;23.360;2024-03-08T09:19:42;11.40;;;9.40;;
79128;SDS011;68529;43.286;23.360;2024-03-08T09:22:08;11.23;;;9.80;;
79128;SDS011;68529;43.286;23.360;2024-03-08T09:24:33;15.33;;;12.17;;
79128;SDS011;68529;43.286;23.360;2024-03-08T09:26:59;13.67;;;11.77;;
79128;SDS011;68529;43.286;23.360;2024-03-08T09:29:24;15.60;;;12.27;;
79128;SDS011;68529;43.286;23.360;2024-03-08T09:31:49;18.63;;;16.20;;
79128;SDS011;68529;43.286;23.360;2024-03-08T09:34:15;21.67;;;18.40;;
79128;SDS011;68529;43.286;23.360;2024-03-08T09:36:40;14.47;;;12.13;;
79128;SDS011;68529;43.286;23.360;2024-03-08T09:39:06;12.83;;;10.60;;
79128;SDS011;68529;43.286;23.360;2024-03-08T09:41:32;21.97;;;16.20;;
79128;SDS011;68529;43.286;23.360;2024-03-08T09:43:59;15.37;;;12.70;;
79128;SDS011;68529;43.286;23.360;2024-03-08T09:46:25;12.07;;;9.50;;
79128;SDS011;68529;43.286;23.360;2024-03-08T09:48:52;13.60;;;11.70;;
79128;SDS011;68529;43.286;23.360;2024-03-08T09:51:19;19.87;;;14.43;;
79128;SDS011;68529;43.286;23.360;2024-03-08T09:53:52;18.77;;;14.13;;
79128;SDS011;68529;43.286;23.360;2024-03-08T09:56:18;11.07;;;9.97;;
79128;SDS011;68529;43.286;23.360;2024-03-08T09:58:44;15.50;;;11.87;;
79128;SDS011;68529;43.286;23.360;2024-03-08T10:01:39;25.67;;;18.57;;
79128;SDS011;68529;43.286;23.360;2024-03-08T10:04:04;12.50;;;11.20;;
79128;SDS011;68529;43.286;23.360;2024-03-08T10:06:30;10.93;;;9.50;;
79128;SDS011;68529;43.286;23.360;2024-03-08T10:08:56;11.57;;;10.37;;
79128;SDS011;68529;43.286;23.360;2024-03-08T10:11:22;10.70;;;9.10;;
79128;SDS011;68529;43.286;23.360;2024-03-08T10:13:48;11.10;;;9.90;;
79128;SDS011;68529;43.286;23.360;2024-03-08T10:16:15;12.33;;;10.93;;
79128;SDS011;68529;43.286;23.360;2024-03-08T10:18:42;11.37;;;9.87;;
79128;SDS011;68529;43.286;23.360;2024-03-08T10:21:07;13.07;;;11.43;;
79128;SDS011;68529;43.286;23.360;2024-03-08T10:23:35;13.10;;;10.80;;
79128;SDS011;68529;43.286;23.360;2024-03-08T10:26:11;16.27;;;13.03;;
79128;SDS011;68529;43.286;23.360;2024-03-08T10:28:47;16.40;;;13.33;;
79128;SDS011;68529;43.286;23.360;2024-03-08T10:31:14;14.07;;;11.63;;
79128;SDS011;68529;43.286;23.360;2024-03-08T10:33:44;19.53;;;14.60;;
79128;SDS011;68529;43.286;23.360;2024-03-08T10:36:10;14.83;;;11.83;;
79128;SDS011;68529;43.286;23.360;2024-03-08T10:38:37;12.50;;;11.17;;
79128;SDS011;68529;43.286;23.360;2024-03-08T10:41:07;13.40;;;11.90;;
79128;SDS011;68529;43.286;23.360;2024-03-08T10:46:58;20.07;;;15.90;;
79128;SDS011;68529;43.286;23.360;2024-03-08T10:49:30;23.07;;;17.67;;
79128;SDS011;68529;43.286;23.360;2024-03-08T10:51:59;24.20;;;17.60;;
79128;SDS011;68529;43.286;23.360;2024-03-08T10:54:28;16.13;;;13.40;;
79128;SDS011;68529;43.286;23.360;2024-03-08T10:56:54;21.67;;;16.60;;
79128;SDS011;68529;43.286;23.360;2024-03-08T10:59:20;21.90;;;16.37;;
79128;SDS011;68529;43.286;23.360;2024-03-08T11:01:46;22.43;;;17.27;;
79128;SDS011;68529;43.286;23.360;2024-03-08T11:04:12;15.37;;;13.00;;
79128;SDS011;68529;43.286;23.360;2024-03-08T11:09:08;23.20;;;16.23;;
79128;SDS011;68529;43.286;23.360;2024-03-08T11:11:42;20.10;;;15.17;;
79128;SDS011;68529;43.286;23.360;2024-03-08T11:14:08;22.17;;;16.77;;
79128;SDS011;68529;43.286;23.360;2024-03-08T11:17:08;24.33;;;17.30;;
79128;SDS011;68529;43.286;23.360;2024-03-08T11:19:34;23.20;;;16.40;;
79128;SDS011;68529;43.286;23.360;2024-03-08T11:22:00;20.80;;;16.63;;
79128;SDS011;68529;43.286;23.360;2024-03-08T11:24:26;23.10;;;16.87;;
79128;SDS011;68529;43.286;23.360;2024-03-08T11:26:54;23.20;;;17.57;;
79128;SDS011;68529;43.286;23.360;2024-03-08T11:32:15;23.10;;;18.30;;
79128;SDS011;68529;43.286;23.360;2024-03-08T11:34:47;27.00;;;18.77;;
79128;SDS011;68529;43.286;23.360;2024-03-08T11:37:15;25.07;;;18.63;;
79128;SDS011;68529;43.286;23.360;2024-03-08T11:39:46;22.00;;;17.13;;
79128;SDS011;68529;43.286;23.360;2024-03-08T11:42:14;21.30;;;17.93;;
79128;SDS011;68529;43.286;23.360;2024-03-08T11:44:40;21.70;;;17.53;;
79128;SDS011;68529;43.286;23.360;2024-03-08T11:47:09;24.93;;;17.63;;
79128;SDS011;68529;43.286;23.360;2024-03-08T11:49:36;20.83;;;16.30;;
79128;SDS011;68529;43.286;23.360;2024-03-08T11:52:01;22.93;;;17.13;;
79128;SDS011;68529;43.286;23.360;2024-03-08T11:54:28;23.50;;;16.73;;
79128;SDS011;68529;43.286;23.360;2024-03-08T11:56:55;20.97;;;15.73;;
79128;SDS011;68529;43.286;23.360;2024-03-08T11:59:25;20.17;;;15.80;;
79128;SDS011;68529;43.286;23.360;2024-03-08T12:02:01;19.63;;;15.53;;
79128;SDS011;68529;43.286;23.360;2024-03-08T12:04:28;21.27;;;15.70;;
79128;SDS011;68529;43.286;23.360;2024-03-08T12:06:54;18.93;;;14.93;;
79128;SDS011;68529;43.286;23.360;2024-03-08T12:09:19;20.83;;;15.40;;
79128;SDS011;68529;43.286;23.360;2024-03-08T12:11:47;19.17;;;15.40;;
79128;SDS011;68529;43.286;23.360;2024-03-08T12:14:13;17.40;;;14.90;;
79128;SDS011;68529;43.286;23.360;2024-03-08T12:16:39;21.93;;;15.30;;
79128;SDS011;68529;43.286;23.360;2024-03-08T12:19:06;17.87;;;14.20;;
79128;SDS011;68529;43.286;23.360;2024-03-08T12:21:32;16.90;;;13.33;;
79128;SDS011;68529;43.286;23.360;2024-03-08T12:24:03;15.60;;;13.17;;
79128;SDS011;68529;43.286;23.360;2024-03-08T12:26:36;16.53;;;13.63;;
79128;SDS011;68529;43.286;23.360;2024-03-08T12:32:04;15.63;;;13.33;;
79128;SDS011;68529;43.286;23.360;2024-03-08T12:34:30;16.57;;;13.60;;
79128;SDS011;68529;43.286;23.360;2024-03-08T12:36:57;22.40;;;17.40;;
79128;SDS011;68529;43.286;23.360;2024-03-08T12:39:23;25.27;;;19.80;;
79128;SDS011;68529;43.286;23.360;2024-03-08T12:41:54;25.57;;;21.03;;
79128;SDS011;68529;43.286;23.360;2024-03-08T12:44:22;29.00;;;21.50;;
79128;SDS011;68529;43.286;23.360;2024-03-08T12:46:48;26.17;;;20.90;;
79128;SDS011;68529;43.286;23.360;2024-03-08T12:49:14;27.40;;;20.43;;
79128;SDS011;68529;43.286;23.360;2024-03-08T12:51:43;26.63;;;21.57;;
79128;SDS011;68529;43.286;23.360;2024-03-08T12:54:09;33.00;;;23.30;;
79128;SDS011;68529;43.286;23.360;2024-03-08T12:56:35;31.97;;;23.87;;
79128;SDS011;68529;43.286;23.360;2024-03-08T12:59:02;25.47;;;20.40;;
79128;SDS011;68529;43.286;23.360;2024-03-08T13:01:32;32.87;;;24.03;;
79128;SDS011;68529;43.286;23.360;2024-03-08T13:03:58;34.83;;;22.90;;
79128;SDS011;68529;43.286;23.360;2024-03-08T13:06:26;28.73;;;22.40;;
79128;SDS011;68529;43.286;23.360;2024-03-08T13:08:53;34.50;;;24.53;;
79128;SDS011;68529;43.286;23.360;2024-03-08T13:11:20;33.17;;;24.67;;
79128;SDS011;68529;43.286;23.360;2024-03-08T13:13:46;35.83;;;24.60;;
79128;SDS011;68529;43.286;23.360;2024-03-08T13:16:12;30.00;;;22.50;;
79128;SDS011;68529;43.286;23.360;2024-03-08T13:18:40;31.33;;;23.47;;
79128;SDS011;68529;43.286;23.360;2024-03-08T13:21:09;33.60;;;21.60;;
79128;SDS011;68529;43.286;23.360;2024-03-08T13:23:36;27.67;;;21.23;;
79128;SDS011;68529;43.286;23.360;2024-03-08T13:26:08;30.17;;;23.43;;
79128;SDS011;68529;43.286;23.360;2024-03-08T13:28:37;35.83;;;24.53;;
79128;SDS011;68529;43.286;23.360;2024-03-08T13:31:05;28.97;;;21.00;;
79128;SDS011;68529;43.286;23.360;2024-03-08T13:33:39;30.97;;;22.40;;
79128;SDS011;68529;43.286;23.360;2024-03-08T13:36:07;29.80;;;20.37;;
79128;SDS011;68529;43.286;23.360;2024-03-08T13:38:45;33.77;;;22.47;;
79128;SDS011;68529;43.286;23.360;2024-03-08T13:41:12;30.63;;;22.77;;
79128;SDS011;68529;43.286;23.360;2024-03-08T13:43:42;29.37;;;21.73;;
79128;SDS011;68529;43.286;23.360;2024-03-08T13:46:08;29.80;;;24.10;;
79128;SDS011;68529;43.286;23.360;2024-03-08T13:48:35;28.77;;;22.23;;
79128;SDS011;68529;43.286;23.360;2024-03-08T13:51:02;36.13;;;26.13;;
79128;SDS011;68529;43.286;23.360;2024-03-08T13:53:29;45.87;;;32.37;;
79128;SDS011;68529;43.286;23.360;2024-03-08T13:55:55;35.57;;;26.93;;
79128;SDS011;68529;43.286;23.360;2024-03-08T13:58:21;31.43;;;23.33;;
79128;SDS011;68529;43.286;23.360;2024-03-08T14:00:47;32.63;;;24.30;;
79128;SDS011;68529;43.286;23.360;2024-03-08T14:03:12;28.67;;;21.83;;
79128;SDS011;68529;43.286;23.360;2024-03-08T14:05:39;25.23;;;19.27;;
79128;SDS011;68529;43.286;23.360;2024-03-08T14:08:05;31.80;;;23.87;;
79128;SDS011;68529;43.286;23.360;2024-03-08T14:10:32;33.00;;;24.97;;
79128;SDS011;68529;43.286;23.360;2024-03-08T14:12:59;30.37;;;21.80;;
79128;SDS011;68529;43.286;23.360;2024-03-08T14:15:24;24.80;;;19.03;;
79128;SDS011;68529;43.286;23.360;2024-03-08T14:17:53;23.77;;;16.87;;
79128;SDS011;68529;43.286;23.360;2024-03-08T14:20:20;22.67;;;18.40;;